Time;durP1;ratioP1;P1;durP2;ratioP2;P2;SDS_P1;SDS_P2;PMS_P1;PMS_P2;Temp;Humidity;BMP_temperature;BMP_pressure;BME280_temperature;BME280_humidity;BME280_pressure;Samples;Min_cycle;Max_cycle;Signal;HPM_P1;HPM_P2
2022/05/04 00:01:02;;;;;;;;;;;6.60;99.90;;;;;;5058413;28;19963;-75
2022/05/04 00:03:28;;;;;;;;;;;6.60;99.90;;;;;;5054295;28;19909;-74
2022/05/04 00:05:53;;;;;;;;;;;6.50;99.90;;;;;;5056080;28;19916;-74
2022/05/04 00:08:19;;;;;;;;;;;6.50;99.90;;;;;;5055330;28;19916;-74
2022/05/04 00:10:44;;;;;;;;;;;6.50;99.90;;;;;;5054891;28;19936;-74
2022/05/04 00:13:10;;;;;;;;;;;6.30;99.90;;;;;;5054275;28;19923;-74
2022/05/04 00:15:36;;;;;;;;;;;6.20;99.90;;;;;;5054917;28;19909;-74
2022/05/04 00:18:02;;;;;;;;;;;6.30;99.90;;;;;;5054754;28;19999;-74
2022/05/04 00:20:28;;;;;;;;;;;6.30;99.90;;;;;;5054679;28;19986;-74
2022/05/04 00:22:54;;;;;;;;;;;6.20;99.90;;;;;;5054532;28;19913;-74
2022/05/04 00:25:19;;;;;;;;;;;6.10;99.90;;;;;;5047550;28;20414;-75
2022/05/04 00:27:45;;;;;;;;;;;6.10;99.90;;;;;;5054894;28;20309;-74
2022/05/04 00:30:10;;;;;;;;;;;6.20;99.90;;;;;;5053629;28;19916;-74
2022/05/04 00:32:36;;;;;;;;;;;6.20;99.90;;;;;;5055790;28;19909;-74
2022/05/04 00:35:01;;;;;;;;;;;6.20;99.90;;;;;;5054275;28;19967;-74
2022/05/04 00:37:27;;;;;;;;;;;6.20;99.90;;;;;;5054420;28;19967;-74
2022/05/04 00:39:52;;;;;;;;;;;6.20;99.90;;;;;;5053049;28;20420;-74
2022/05/04 00:42:19;;;;;;;;;;;6.30;99.90;;;;;;5054050;28;19916;-74
2022/05/04 00:44:46;;;;;;;;;;;6.20;99.90;;;;;;5053766;28;19916;-74
2022/05/04 00:47:12;;;;;;;;;;;6.30;99.90;;;;;;5053893;28;20370;-75
2022/05/04 00:49:38;;;;;;;;;;;6.40;99.90;;;;;;5054220;28;19917;-74
2022/05/04 00:52:04;;;;;;;;;;;6.40;99.90;;;;;;5053907;28;19909;-74
2022/05/04 00:54:30;;;;;;;;;;;6.40;99.90;;;;;;5053596;28;19919;-74
2022/05/04 00:56:56;;;;;;;;;;;6.10;99.90;;;;;;5054144;28;20015;-74
2022/05/04 00:59:21;;;;;;;;;;;6.20;99.90;;;;;;5055573;28;19909;-74
2022/05/04 01:01:47;;;;;;;;;;;6.10;99.90;;;;;;5058141;28;19909;-74
2022/05/04 01:04:13;;;;;;;;;;;6.10;99.90;;;;;;5069653;28;20362;-74
2022/05/04 01:06:38;;;;;;;;;;;6.00;99.90;;;;;;5072976;28;19915;-74
2022/05/04 01:09:04;;;;;;;;;;;6.00;99.90;;;;;;5072696;28;19991;-74
2022/05/04 01:11:29;;;;;;;;;;;6.00;99.90;;;;;;5072680;28;19909;-74
2022/05/04 01:13:58;;;;;;;;;;;5.90;99.90;;;;;;5072625;28;19908;-75
2022/05/04 01:16:23;;;;;;;;;;;5.90;99.90;;;;;;5072930;28;19909;-75
2022/05/04 01:18:49;;;;;;;;;;;5.80;99.90;;;;;;5072678;28;19916;-75
2022/05/04 01:21:14;;;;;;;;;;;5.80;99.90;;;;;;5072614;28;19944;-74
2022/05/04 01:23:41;;;;;;;;;;;5.90;99.90;;;;;;5072307;28;20360;-75
2022/05/04 01:26:07;;;;;;;;;;;5.90;99.90;;;;;;5072637;28;19908;-75
2022/05/04 01:28:32;;;;;;;;;;;5.80;99.90;;;;;;5072628;28;19961;-75
2022/05/04 01:30:58;;;;;;;;;;;5.70;99.90;;;;;;5053151;28;19909;-75
2022/05/04 01:33:23;;;;;;;;;;;5.70;99.90;;;;;;5052967;28;20274;-75
2022/05/04 01:35:49;;;;;;;;;;;6.00;99.90;;;;;;5052011;28;19913;-74
2022/05/04 01:38:14;;;;;;;;;;;6.20;99.90;;;;;;5053100;28;20029;-75
2022/05/04 01:40:40;;;;;;;;;;;6.20;99.90;;;;;;5053144;28;19948;-75
2022/05/04 01:43:05;;;;;;;;;;;6.20;99.90;;;;;;5046125;28;20003;-75
2022/05/04 01:45:30;;;;;;;;;;;6.30;99.90;;;;;;5053012;28;19919;-75
2022/05/04 01:47:56;;;;;;;;;;;6.30;99.90;;;;;;5053028;28;19909;-75
2022/05/04 01:50:21;;;;;;;;;;;6.20;99.90;;;;;;5052250;28;19916;-75
2022/05/04 01:52:47;;;;;;;;;;;6.20;99.90;;;;;;5052472;28;20000;-75
2022/05/04 01:55:14;;;;;;;;;;;6.20;99.90;;;;;;5052753;28;19935;-75
2022/05/04 01:57:39;;;;;;;;;;;6.30;99.90;;;;;;5057935;28;19915;-75
2022/05/04 02:00:06;;;;;;;;;;;6.40;99.90;;;;;;5071455;28;19908;-75
2022/05/04 02:02:32;;;;;;;;;;;6.70;99.90;;;;;;5071764;28;19909;-75
2022/05/04 02:04:57;;;;;;;;;;;6.80;99.90;;;;;;5071663;28;19913;-75
2022/05/04 02:07:23;;;;;;;;;;;6.80;99.90;;;;;;5067489;28;19962;-75
2022/05/04 02:09:49;;;;;;;;;;;6.70;99.90;;;;;;5052519;28;19910;-75
2022/05/04 02:12:14;;;;;;;;;;;6.70;99.90;;;;;;5052509;28;19919;-74
2022/05/04 02:14:40;;;;;;;;;;;6.70;99.90;;;;;;5052240;28;19956;-75
2022/05/04 02:17:05;;;;;;;;;;;6.70;99.90;;;;;;5052661;28;20263;-75
2022/05/04 02:19:31;;;;;;;;;;;6.90;99.90;;;;;;5052576;28;19931;-75
2022/05/04 02:21:56;;;;;;;;;;;7.00;99.90;;;;;;5056483;28;19956;-75
2022/05/04 02:24:22;;;;;;;;;;;6.90;99.90;;;;;;5051838;28;20019;-75
2022/05/04 02:26:48;;;;;;;;;;;6.90;99.90;;;;;;5052492;28;19909;-75
2022/05/04 02:29:13;;;;;;;;;;;6.80;99.90;;;;;;5059273;28;19977;-75
2022/05/04 02:31:38;;;;;;;;;;;6.90;99.90;;;;;;5056573;28;19909;-75
2022/05/04 02:34:04;;;;;;;;;;;7.00;99.90;;;;;;5051914;28;19958;-75
2022/05/04 02:39:14;;;;;;;;;;;7.10;99.90;;;;;;5052374;28;19955;-75
2022/05/04 02:41:39;;;;;;;;;;;7.10;99.90;;;;;;5051796;28;19909;-75
2022/05/04 02:44:05;;;;;;;;;;;7.10;99.90;;;;;;5051865;28;20000;-75
2022/05/04 02:46:30;;;;;;;;;;;7.10;99.90;;;;;;5052023;28;20263;-75
2022/05/04 02:48:56;;;;;;;;;;;7.20;99.90;;;;;;5051986;28;20254;-75
2022/05/04 02:51:22;;;;;;;;;;;7.30;99.90;;;;;;5051607;28;19909;-75
2022/05/04 02:53:47;;;;;;;;;;;7.50;99.90;;;;;;5051615;28;19908;-75
2022/05/04 02:56:16;;;;;;;;;;;7.60;99.90;;;;;;5051986;28;19909;-75
2022/05/04 02:58:42;;;;;;;;;;;7.80;99.90;;;;;;5051800;28;19915;-75
2022/05/04 03:02:26;;;;;;;;;;;7.90;99.90;;;;;;5052328;28;20019;-75
2022/05/04 03:03:52;;;;;;;;;;;7.90;99.90;;;;;;5049246;28;19916;-75
2022/05/04 03:06:18;;;;;;;;;;;7.80;99.90;;;;;;5051870;28;19916;-75
2022/05/04 03:08:43;;;;;;;;;;;7.60;99.90;;;;;;5051674;28;20366;-74
2022/05/04 03:13:53;;;;;;;;;;;7.40;99.90;;;;;;5051525;28;19916;-75
2022/05/04 03:16:18;;;;;;;;;;;7.40;99.90;;;;;;5051532;28;19909;-75
2022/05/04 03:18:44;;;;;;;;;;;7.40;99.90;;;;;;5051713;28;20052;-75
2022/05/04 03:21:09;;;;;;;;;;;7.30;99.90;;;;;;5051681;28;20314;-76
2022/05/04 03:23:35;;;;;;;;;;;7.30;99.90;;;;;;5062799;28;19954;-75
2022/05/04 03:26:00;;;;;;;;;;;7.20;99.90;;;;;;5066599;28;20350;-75
2022/05/04 03:28:25;;;;;;;;;;;7.20;99.90;;;;;;5051670;28;20379;-75
2022/05/04 03:30:51;;;;;;;;;;;7.30;99.90;;;;;;5055548;28;19912;-76
2022/05/04 03:33:16;;;;;;;;;;;7.40;99.90;;;;;;5051110;28;19947;-76
2022/05/04 03:35:42;;;;;;;;;;;7.40;99.90;;;;;;5061411;28;19909;-76
2022/05/04 03:38:07;;;;;;;;;;;7.40;99.90;;;;;;5068105;28;19908;-76
2022/05/04 03:40:33;;;;;;;;;;;7.40;99.90;;;;;;5051521;28;20300;-76
2022/05/04 03:42:58;;;;;;;;;;;7.20;99.90;;;;;;5051418;28;19924;-76
2022/05/04 03:45:24;;;;;;;;;;;7.10;99.90;;;;;;5051109;28;19916;-76
2022/05/04 03:47:49;;;;;;;;;;;7.10;99.90;;;;;;5059967;28;19938;-75
2022/05/04 03:50:15;;;;;;;;;;;7.00;99.90;;;;;;5068596;28;20041;-76
2022/05/04 03:52:40;;;;;;;;;;;7.00;99.90;;;;;;5066039;28;20408;-76
2022/05/04 03:55:06;;;;;;;;;;;7.00;99.90;;;;;;5070307;28;20320;-76
2022/05/04 03:57:31;;;;;;;;;;;7.20;99.90;;;;;;5070679;28;19908;-75
2022/05/04 03:59:57;;;;;;;;;;;7.30;99.90;;;;;;5063671;28;19909;-76
2022/05/04 04:02:22;;;;;;;;;;;7.40;99.90;;;;;;5056994;28;20239;-74
2022/05/04 04:04:48;;;;;;;;;;;7.30;99.90;;;;;;5069787;28;19919;-74
2022/05/04 04:07:13;;;;;;;;;;;7.40;99.90;;;;;;5051358;28;19909;-75
2022/05/04 04:09:39;;;;;;;;;;;7.40;99.90;;;;;;5070470;28;19967;-75
2022/05/04 04:12:04;;;;;;;;;;;7.50;99.90;;;;;;5063546;28;19912;-75
2022/05/04 04:14:30;;;;;;;;;;;7.50;99.90;;;;;;5061897;28;20331;-75
2022/05/04 04:16:56;;;;;;;;;;;7.50;99.90;;;;;;5054912;28;19915;-74
2022/05/04 04:19:21;;;;;;;;;;;7.60;99.90;;;;;;5061981;28;19954;-75
2022/05/04 04:21:53;;;;;;;;;;;7.60;99.90;;;;;;5070694;28;19909;-75
2022/05/04 04:24:20;;;;;;;;;;;7.60;99.90;;;;;;5055058;28;19958;-75
2022/05/04 04:26:45;;;;;;;;;;;7.60;99.90;;;;;;5053437;28;19919;-75
2022/05/04 04:29:11;;;;;;;;;;;7.70;99.90;;;;;;5054019;28;20269;-75
2022/05/04 04:31:36;;;;;;;;;;;7.80;99.90;;;;;;5054305;28;19954;-75
2022/05/04 04:34:03;;;;;;;;;;;7.90;99.90;;;;;;5054164;28;19909;-75
2022/05/04 04:36:29;;;;;;;;;;;7.80;99.90;;;;;;5066119;28;19915;-75
2022/05/04 04:38:55;;;;;;;;;;;7.80;99.90;;;;;;5073545;28;20003;-75
2022/05/04 04:41:21;;;;;;;;;;;7.90;99.90;;;;;;5062371;28;19909;-75
2022/05/04 04:43:46;;;;;;;;;;;7.90;99.90;;;;;;5058204;28;19908;-75
2022/05/04 04:46:11;;;;;;;;;;;7.90;99.90;;;;;;5073857;28;19908;-74
2022/05/04 04:48:37;;;;;;;;;;;8.00;99.90;;;;;;5073376;28;19920;-74
2022/05/04 04:51:02;;;;;;;;;;;8.00;99.90;;;;;;5069834;28;20320;-74
2022/05/04 04:53:28;;;;;;;;;;;8.10;99.90;;;;;;5070501;28;19917;-74
2022/05/04 04:55:54;;;;;;;;;;;8.20;99.90;;;;;;5070099;28;19963;-75
2022/05/04 04:58:19;;;;;;;;;;;8.20;99.90;;;;;;5055887;28;19932;-75
2022/05/04 05:00:45;;;;;;;;;;;8.10;99.90;;;;;;5054904;28;19920;-75
2022/05/04 05:03:11;;;;;;;;;;;8.10;99.90;;;;;;5046640;28;19908;-75
2022/05/04 05:05:39;;;;;;;;;;;8.10;99.90;;;;;;5052757;28;19913;-75
2022/05/04 05:08:05;;;;;;;;;;;8.10;99.90;;;;;;5051993;28;19919;-75
2022/05/04 05:10:31;;;;;;;;;;;8.10;99.90;;;;;;5047680;28;19913;-75
2022/05/04 05:12:56;;;;;;;;;;;8.20;99.90;;;;;;5058218;28;19932;-75
2022/05/04 05:18:06;;;;;;;;;;;8.50;99.90;;;;;;5061757;28;19971;-75
2022/05/04 05:20:32;;;;;;;;;;;8.50;99.90;;;;;;5057286;28;19909;-75
2022/05/04 05:22:58;;;;;;;;;;;8.60;99.90;;;;;;5072542;28;19909;-75
2022/05/04 05:25:24;;;;;;;;;;;8.60;99.90;;;;;;5072335;28;20285;-75
2022/05/04 05:27:49;;;;;;;;;;;8.70;99.90;;;;;;5072652;28;19912;-75
2022/05/04 05:30:15;;;;;;;;;;;8.60;99.90;;;;;;5068842;28;20386;-75
2022/05/04 05:32:40;;;;;;;;;;;8.60;99.90;;;;;;5064292;28;19909;-75
2022/05/04 05:35:06;;;;;;;;;;;8.60;99.90;;;;;;5062890;28;19915;-75
2022/05/04 05:37:32;;;;;;;;;;;8.70;99.90;;;;;;5053477;28;19916;-75
2022/05/04 05:39:57;;;;;;;;;;;8.80;99.90;;;;;;5050456;28;20387;-75
2022/05/04 05:42:23;;;;;;;;;;;9.00;99.90;;;;;;5056332;28;19916;-75
2022/05/04 05:44:49;;;;;;;;;;;9.10;99.90;;;;;;5072336;28;19913;-75
2022/05/04 05:47:15;;;;;;;;;;;9.30;99.90;;;;;;5059645;28;19916;-75
2022/05/04 05:49:40;;;;;;;;;;;9.40;99.90;;;;;;5057240;28;20008;-75
2022/05/04 05:52:08;;;;;;;;;;;9.50;99.90;;;;;;5060381;28;19908;-75
2022/05/04 05:54:33;;;;;;;;;;;9.60;99.90;;;;;;5065143;28;19964;-75
2022/05/04 05:56:59;;;;;;;;;;;9.70;99.90;;;;;;5053813;28;19952;-75
2022/05/04 05:59:24;;;;;;;;;;;9.80;99.90;;;;;;5059181;28;19913;-75
2022/05/04 06:01:50;;;;;;;;;;;9.80;99.90;;;;;;5052977;28;19912;-75
2022/05/04 06:04:16;;;;;;;;;;;9.90;99.90;;;;;;5052733;28;19913;-75
2022/05/04 06:06:41;;;;;;;;;;;10.00;99.90;;;;;;5060600;28;20348;-75
2022/05/04 06:09:07;;;;;;;;;;;10.00;99.90;;;;;;5056469;28;19909;-75
2022/05/04 06:11:34;;;;;;;;;;;10.10;99.90;;;;;;5052635;28;19913;-75
2022/05/04 06:14:00;;;;;;;;;;;10.10;99.90;;;;;;5052625;28;19915;-75
2022/05/04 06:16:25;;;;;;;;;;;10.10;99.90;;;;;;5052780;28;19956;-75
2022/05/04 06:18:51;;;;;;;;;;;10.20;99.90;;;;;;5053196;28;19909;-75
2022/05/04 06:21:16;;;;;;;;;;;10.20;99.90;;;;;;5063855;28;19909;-75
2022/05/04 06:23:42;;;;;;;;;;;10.30;99.90;;;;;;5067834;28;19908;-74
2022/05/04 06:26:07;;;;;;;;;;;10.40;99.90;;;;;;5052939;28;19909;-75
2022/05/04 06:28:33;;;;;;;;;;;10.40;99.90;;;;;;5056618;28;19939;-75
2022/05/04 06:36:27;;;;;;;;;;;10.70;99.90;;;;;;5052221;28;19959;-75
2022/05/04 06:38:52;;;;;;;;;;;10.80;99.90;;;;;;5059269;28;20321;-75
2022/05/04 06:41:18;;;;;;;;;;;10.80;99.90;;;;;;5067471;28;19923;-75
2022/05/04 06:43:45;;;;;;;;;;;10.70;99.90;;;;;;5052963;28;19913;-75
2022/05/04 06:46:11;;;;;;;;;;;10.80;99.90;;;;;;5043916;28;20267;-75
2022/05/04 06:48:36;;;;;;;;;;;10.80;99.90;;;;;;5044436;28;20007;-75
2022/05/04 06:51:02;;;;;;;;;;;10.80;99.90;;;;;;5051226;28;20123;-75
2022/05/04 06:53:27;;;;;;;;;;;10.80;99.90;;;;;;5046283;28;20430;-75
2022/05/04 06:55:53;;;;;;;;;;;10.90;99.90;;;;;;5050504;28;19916;-75
2022/05/04 06:58:18;;;;;;;;;;;10.90;99.90;;;;;;5053574;28;20370;-75
2022/05/04 07:00:44;;;;;;;;;;;10.90;99.90;;;;;;5070889;28;19970;-75
2022/05/04 07:03:09;;;;;;;;;;;11.00;99.90;;;;;;5070142;28;19930;-75
2022/05/04 07:05:35;;;;;;;;;;;11.00;99.90;;;;;;5060748;28;19913;-75
2022/05/04 07:08:00;;;;;;;;;;;11.00;99.90;;;;;;5047469;28;19954;-75
2022/05/04 07:10:26;;;;;;;;;;;11.00;99.90;;;;;;5049493;28;19912;-75
2022/05/04 07:12:53;;;;;;;;;;;11.00;99.90;;;;;;5050816;28;19999;-75
2022/05/04 07:15:19;;;;;;;;;;;11.00;99.90;;;;;;5048709;28;19960;-77
2022/05/04 07:17:44;;;;;;;;;;;11.00;99.90;;;;;;5051428;28;19944;-75
2022/05/04 07:20:10;;;;;;;;;;;11.00;99.90;;;;;;5063959;28;19919;-75
2022/05/04 07:22:36;;;;;;;;;;;11.00;99.90;;;;;;5058439;28;19916;-75
2022/05/04 07:25:02;;;;;;;;;;;11.00;99.90;;;;;;5055180;28;19970;-75
2022/05/04 07:27:28;;;;;;;;;;;11.10;99.90;;;;;;5051454;28;19913;-75
2022/05/04 07:29:53;;;;;;;;;;;11.10;99.90;;;;;;5054995;28;19964;-75
2022/05/04 07:32:19;;;;;;;;;;;11.10;99.90;;;;;;5054210;28;19952;-75
2022/05/04 07:34:44;;;;;;;;;;;11.10;99.90;;;;;;5057544;28;20403;-75
2022/05/04 07:37:10;;;;;;;;;;;11.20;99.90;;;;;;5070515;28;19912;-75
2022/05/04 07:42:26;;;;;;;;;;;11.40;99.90;;;;;;5070577;28;19915;-75
2022/05/04 07:44:57;;;;;;;;;;;11.50;99.90;;;;;;5057948;28;19959;-75
2022/05/04 07:47:24;;;;;;;;;;;11.40;99.90;;;;;;5060051;28;19936;-75
2022/05/04 07:49:50;;;;;;;;;;;11.60;99.90;;;;;;5052150;28;19924;-75
2022/05/04 07:52:15;;;;;;;;;;;11.50;99.90;;;;;;5049713;28;19909;-75
2022/05/04 07:54:41;;;;;;;;;;;11.50;99.90;;;;;;5069979;28;19908;-75
2022/05/04 07:57:08;;;;;;;;;;;11.60;99.90;;;;;;5071684;28;20003;-75
2022/05/04 07:59:33;;;;;;;;;;;11.90;99.90;;;;;;5067477;28;19908;-75
2022/05/04 08:04:43;;;;;;;;;;;12.30;99.90;;;;;;5055839;28;19920;-75
2022/05/04 08:07:09;;;;;;;;;;;12.40;99.90;;;;;;5054804;28;19908;-75
2022/05/04 08:09:36;;;;;;;;;;;12.40;99.90;;;;;;5055236;28;20230;-75
2022/05/04 08:12:11;;;;;;;;;;;12.50;99.90;;;;;;5054664;28;20393;-75
2022/05/04 08:14:36;;;;;;;;;;;12.50;99.90;;;;;;5063870;28;20282;-75
2022/05/04 08:17:02;;;;;;;;;;;12.50;99.90;;;;;;5051023;28;19909;-75
2022/05/04 08:19:27;;;;;;;;;;;12.60;99.90;;;;;;5054440;28;20316;-75
2022/05/04 08:21:54;;;;;;;;;;;12.70;99.90;;;;;;5067700;28;19931;-75
2022/05/04 08:24:20;;;;;;;;;;;13.10;99.90;;;;;;5054202;28;20396;-75
2022/05/04 08:26:45;;;;;;;;;;;13.40;99.90;;;;;;5060532;28;19908;-75
2022/05/04 08:29:11;;;;;;;;;;;13.60;99.90;;;;;;5060012;28;19914;-75
2022/05/04 08:31:38;;;;;;;;;;;13.60;99.90;;;;;;5060780;28;20463;-75
2022/05/04 08:34:03;;;;;;;;;;;14.00;99.90;;;;;;5064334;28;20289;-75
2022/05/04 08:36:29;;;;;;;;;;;14.30;99.90;;;;;;5054197;28;19916;-75
2022/05/04 08:38:55;;;;;;;;;;;14.60;99.90;;;;;;5054058;28;19912;-75
2022/05/04 08:41:22;;;;;;;;;;;14.80;99.90;;;;;;5066700;28;19916;-75
2022/05/04 08:43:48;;;;;;;;;;;14.80;99.90;;;;;;5053639;28;19909;-75
2022/05/04 08:46:17;;;;;;;;;;;15.30;99.90;;;;;;5060444;28;19966;-75
2022/05/04 08:48:43;;;;;;;;;;;15.70;99.90;;;;;;5067895;28;19920;-75
2022/05/04 08:51:10;;;;;;;;;;;16.30;99.90;;;;;;5063655;28;19961;-75
2022/05/04 08:53:37;;;;;;;;;;;17.00;99.90;;;;;;5072736;28;19955;-75
2022/05/04 08:56:02;;;;;;;;;;;17.90;99.90;;;;;;5072623;28;19912;-75
2022/05/04 08:58:28;;;;;;;;;;;18.40;99.90;;;;;;5073187;28;19980;-75
2022/05/04 09:00:54;;;;;;;;;;;20.00;99.90;;;;;;5060954;28;19908;-73
2022/05/04 09:03:21;;;;;;;;;;;21.50;99.90;;;;;;5052211;28;20255;-73
2022/05/04 09:05:47;;;;;;;;;;;21.90;99.50;;;;;;5053640;28;20392;-74
2022/05/04 09:08:13;;;;;;;;;;;22.50;97.30;;;;;;5053430;28;19924;-73
2022/05/04 09:10:39;;;;;;;;;;;20.80;97.70;;;;;;5053114;28;19967;-74
2022/05/04 09:13:05;;;;;;;;;;;22.40;96.40;;;;;;5052450;28;19957;-74
2022/05/04 09:15:32;;;;;;;;;;;23.20;94.40;;;;;;5050787;28;19917;-74
2022/05/04 09:18:02;;;;;;;;;;;23.10;94.70;;;;;;5057146;28;20391;-76
2022/05/04 09:23:13;;;;;;;;;;;24.30;90.00;;;;;;5071955;28;20001;-74
2022/05/04 09:25:38;;;;;;;;;;;22.40;90.60;;;;;;5070922;28;19920;-74
2022/05/04 09:28:07;;;;;;;;;;;24.20;91.20;;;;;;5072371;28;20117;-74
2022/05/04 09:30:33;;;;;;;;;;;24.80;86.90;;;;;;5059631;28;19909;-74
2022/05/04 09:32:58;;;;;;;;;;;24.10;84.90;;;;;;5052644;28;19999;-74
2022/05/04 09:35:24;;;;;;;;;;;23.90;89.40;;;;;;5050795;28;19912;-74
2022/05/04 09:46:05;;;;;;;;;;;24.70;77.90;;;;;;5052545;28;19919;-74
2022/05/04 09:48:32;;;;;;;;;;;24.80;82.10;;;;;;5054369;28;19920;-74
2022/05/04 09:51:08;;;;;;;;;;;25.20;81.50;;;;;;5052471;28;20471;-74
2022/05/04 09:53:34;;;;;;;;;;;26.00;76.40;;;;;;5052568;28;19924;-74
2022/05/04 09:56:01;;;;;;;;;;;23.90;74.80;;;;;;5052423;28;19909;-74
2022/05/04 09:58:27;;;;;;;;;;;22.50;79.50;;;;;;5055513;28;20362;-74
2022/05/04 10:00:54;;;;;;;;;;;22.20;79.80;;;;;;5044741;28;19912;-74
2022/05/04 10:03:19;;;;;;;;;;;21.90;80.30;;;;;;5053901;28;19913;-73
2022/05/04 10:05:45;;;;;;;;;;;23.30;82.00;;;;;;5051162;28;20297;-75
2022/05/04 10:08:11;;;;;;;;;;;24.80;79.10;;;;;;5052653;28;19908;-74
2022/05/04 10:10:36;;;;;;;;;;;25.00;72.00;;;;;;5052521;28;19944;-75
2022/05/04 10:13:03;;;;;;;;;;;25.50;71.80;;;;;;5051682;28;19916;-74
2022/05/04 10:15:30;;;;;;;;;;;22.00;78.50;;;;;;5060581;28;19909;-74
2022/05/04 10:18:05;;;;;;;;;;;20.60;81.50;;;;;;5053317;28;19915;-74
2022/05/04 10:20:41;;;;;;;;;;;19.30;85.50;;;;;;5061990;28;20016;-75
2022/05/04 10:23:21;;;;;;;;;;;18.90;88.20;;;;;;5043781;28;19912;-74
2022/05/04 10:25:47;;;;;;;;;;;18.90;91.80;;;;;;5049157;28;19916;-74
2022/05/04 10:28:13;;;;;;;;;;;18.20;88.70;;;;;;5049768;28;19995;-74
2022/05/04 10:31:08;;;;;;;;;;;19.20;91.20;;;;;;5062313;28;19915;-74
2022/05/04 10:33:35;;;;;;;;;;;19.30;86.50;;;;;;5051253;28;19909;-74
2022/05/04 10:36:13;;;;;;;;;;;18.50;87.20;;;;;;5062378;28;19974;-74
2022/05/04 10:38:41;;;;;;;;;;;18.00;86.60;;;;;;5071482;28;19913;-74
2022/05/04 10:41:07;;;;;;;;;;;18.00;90.90;;;;;;5071438;28;19909;-74
2022/05/04 10:43:36;;;;;;;;;;;17.90;85.80;;;;;;5071178;28;20280;-74
2022/05/04 10:46:12;;;;;;;;;;;17.80;90.00;;;;;;5057743;28;19966;-74
2022/05/04 10:48:42;;;;;;;;;;;18.20;90.30;;;;;;5045437;28;19913;-75
2022/05/04 10:51:11;;;;;;;;;;;18.80;87.80;;;;;;5051949;28;19916;-74
2022/05/04 10:53:38;;;;;;;;;;;18.50;85.80;;;;;;5047361;28;19908;-74
2022/05/04 10:56:05;;;;;;;;;;;18.40;85.80;;;;;;5051553;28;19948;-74
2022/05/04 10:58:35;;;;;;;;;;;18.30;90.40;;;;;;5058016;28;19912;-74
2022/05/04 11:01:01;;;;;;;;;;;18.10;86.60;;;;;;5051497;28;19909;-74
2022/05/04 11:03:31;;;;;;;;;;;17.50;86.70;;;;;;5051382;28;19909;-75
2022/05/04 11:05:57;;;;;;;;;;;17.20;88.60;;;;;;5051263;28;19970;-74
2022/05/04 11:08:25;;;;;;;;;;;17.10;88.70;;;;;;5051775;28;20521;-74
2022/05/04 11:10:52;;;;;;;;;;;17.40;90.40;;;;;;5050823;28;19912;-74
2022/05/04 11:13:18;;;;;;;;;;;17.20;89.10;;;;;;5063893;28;19952;-74
2022/05/04 11:15:52;;;;;;;;;;;17.60;90.60;;;;;;5054757;28;19944;-74
2022/05/04 11:18:23;;;;;;;;;;;17.60;90.80;;;;;;5049852;28;20280;-74
2022/05/04 11:20:49;;;;;;;;;;;17.60;90.90;;;;;;5051372;28;20008;-74
2022/05/04 11:23:22;;;;;;;;;;;18.20;90.40;;;;;;5050804;28;19919;-74
2022/05/04 11:25:48;;;;;;;;;;;18.80;91.80;;;;;;5051266;28;19956;-74
2022/05/04 11:28:17;;;;;;;;;;;18.90;90.80;;;;;;5051183;28;19917;-74
2022/05/04 11:30:42;;;;;;;;;;;18.10;90.00;;;;;;5051481;28;19909;-74
2022/05/04 11:33:12;;;;;;;;;;;18.30;91.10;;;;;;5053014;28;19916;-74
2022/05/04 11:35:37;;;;;;;;;;;18.10;90.00;;;;;;5053384;28;19955;-74
2022/05/04 11:38:03;;;;;;;;;;;18.50;89.60;;;;;;5053911;28;19909;-74
2022/05/04 11:40:29;;;;;;;;;;;18.50;87.40;;;;;;5054979;28;19931;-74
2022/05/04 11:42:54;;;;;;;;;;;18.00;90.00;;;;;;5054878;28;19912;-74
2022/05/04 11:45:20;;;;;;;;;;;18.50;89.70;;;;;;5054960;28;19921;-74
2022/05/04 11:47:45;;;;;;;;;;;19.10;87.30;;;;;;5068335;28;19908;-74
2022/05/04 11:50:11;;;;;;;;;;;19.10;86.30;;;;;;5051576;28;19924;-74
2022/05/04 11:52:37;;;;;;;;;;;19.90;86.60;;;;;;5058599;28;19913;-74
2022/05/04 11:55:03;;;;;;;;;;;20.00;80.30;;;;;;5055173;28;19922;-74
2022/05/04 11:57:31;;;;;;;;;;;20.10;83.10;;;;;;5055592;28;19916;-74
2022/05/04 11:59:56;;;;;;;;;;;20.10;82.70;;;;;;5055690;28;20404;-74
2022/05/04 12:02:22;;;;;;;;;;;20.30;86.40;;;;;;5056433;28;19909;-74
2022/05/04 12:04:48;;;;;;;;;;;20.30;82.30;;;;;;5054924;28;20014;-74
2022/05/04 12:07:13;;;;;;;;;;;19.70;79.40;;;;;;5055459;28;20373;-74
2022/05/04 12:09:39;;;;;;;;;;;19.50;83.10;;;;;;5055148;28;19916;-75
2022/05/04 12:12:05;;;;;;;;;;;19.90;79.40;;;;;;5055204;28;20436;-74
2022/05/04 12:14:30;;;;;;;;;;;19.90;79.00;;;;;;5053618;28;19913;-74
2022/05/04 12:16:56;;;;;;;;;;;18.80;80.80;;;;;;5054462;28;19955;-74
2022/05/04 12:19:22;;;;;;;;;;;19.00;82.60;;;;;;5054924;28;19915;-74
2022/05/04 12:21:49;;;;;;;;;;;19.10;82.80;;;;;;5055418;28;20003;-74
2022/05/04 12:24:14;;;;;;;;;;;19.20;84.10;;;;;;5054358;28;19919;-74
2022/05/04 12:26:40;;;;;;;;;;;19.30;81.00;;;;;;5054323;28;19909;-74
2022/05/04 12:34:34;;;;;;;;;;;17.90;90.40;;;;;;5064647;28;20276;-73
2022/05/04 12:37:00;;;;;;;;;;;17.50;91.30;;;;;;5056878;28;20007;-73
2022/05/04 12:39:25;;;;;;;;;;;17.50;92.30;;;;;;5054263;28;19952;-73
2022/05/04 12:41:54;;;;;;;;;;;17.50;92.70;;;;;;5054266;28;19949;-73
2022/05/04 12:44:19;;;;;;;;;;;17.30;91.70;;;;;;5053602;28;19913;-74
2022/05/04 12:46:55;;;;;;;;;;;17.20;92.60;;;;;;5053946;28;20582;-73
2022/05/04 12:49:24;;;;;;;;;;;17.10;92.40;;;;;;5057321;28;19917;-73
2022/05/04 12:51:49;;;;;;;;;;;16.90;92.40;;;;;;5056216;28;19916;-73
2022/05/04 12:54:18;;;;;;;;;;;16.80;93.30;;;;;;5053465;28;19913;-73
2022/05/04 12:56:47;;;;;;;;;;;16.90;93.80;;;;;;5054154;28;19954;-73
2022/05/04 12:59:16;;;;;;;;;;;16.50;94.80;;;;;;5053625;28;20434;-73
2022/05/04 13:01:42;;;;;;;;;;;16.10;96.70;;;;;;5053024;28;19935;-73
2022/05/04 13:04:07;;;;;;;;;;;16.00;98.70;;;;;;5055565;28;19908;-73
2022/05/04 13:06:33;;;;;;;;;;;15.20;98.20;;;;;;5053525;28;19947;-73
2022/05/04 13:08:58;;;;;;;;;;;14.50;99.90;;;;;;5053376;28;19909;-73
2022/05/04 13:11:25;;;;;;;;;;;14.30;99.90;;;;;;5053426;28;20110;-73
2022/05/04 13:13:51;;;;;;;;;;;14.00;99.90;;;;;;5050255;28;20411;-73
2022/05/04 13:16:16;;;;;;;;;;;13.90;99.90;;;;;;5052660;28;19909;-73
2022/05/04 13:18:42;;;;;;;;;;;13.80;99.90;;;;;;5053339;28;19920;-73
2022/05/04 13:21:08;;;;;;;;;;;13.90;99.90;;;;;;5052593;28;20412;-73
2022/05/04 13:23:33;;;;;;;;;;;14.10;99.90;;;;;;5056297;28;19908;-73
2022/05/04 13:25:59;;;;;;;;;;;14.20;99.90;;;;;;5056187;28;19917;-74
2022/05/04 13:28:26;;;;;;;;;;;14.40;99.90;;;;;;5053104;28;19913;-73
2022/05/04 13:30:52;;;;;;;;;;;14.50;99.90;;;;;;5052922;28;19909;-73
2022/05/04 13:33:17;;;;;;;;;;;14.60;99.90;;;;;;5052922;28;19912;-73
2022/05/04 13:35:43;;;;;;;;;;;14.60;99.90;;;;;;5054164;28;20286;-73
2022/05/04 13:38:08;;;;;;;;;;;14.80;99.90;;;;;;5053567;28;19915;-74
2022/05/04 13:40:34;;;;;;;;;;;15.60;99.90;;;;;;5052855;28;20328;-74
2022/05/04 13:43:00;;;;;;;;;;;17.00;99.90;;;;;;5052500;28;19909;-74
2022/05/04 13:45:25;;;;;;;;;;;17.80;99.90;;;;;;5052815;28;20011;-73
2022/05/04 13:47:51;;;;;;;;;;;18.50;99.90;;;;;;5050877;28;19917;-74
2022/05/04 13:53:16;;;;;;;;;;;19.60;97.20;;;;;;5052308;28;19948;-74
2022/05/04 13:55:52;;;;;;;;;;;19.10;96.10;;;;;;5052627;28;19991;-74
2022/05/04 13:58:23;;;;;;;;;;;19.40;97.20;;;;;;5071770;28;19915;-74
2022/05/04 14:00:51;;;;;;;;;;;19.90;93.10;;;;;;5065220;28;19991;-74
2022/05/04 14:03:17;;;;;;;;;;;19.90;95.70;;;;;;5054979;28;19913;-74
2022/05/04 14:05:43;;;;;;;;;;;19.80;96.00;;;;;;5052624;28;20004;-74
2022/05/04 14:08:09;;;;;;;;;;;20.20;95.20;;;;;;5052608;28;19996;-74
2022/05/04 14:10:35;;;;;;;;;;;20.40;93.60;;;;;;5064172;28;20482;-74
2022/05/04 14:13:01;;;;;;;;;;;21.20;93.00;;;;;;5070346;28;20007;-74
2022/05/04 14:15:27;;;;;;;;;;;21.20;94.10;;;;;;5050222;28;19908;-74
2022/05/04 14:17:52;;;;;;;;;;;22.00;90.00;;;;;;5052146;28;20377;-74
2022/05/04 14:20:17;;;;;;;;;;;22.20;87.70;;;;;;5052018;28;19909;-74
2022/05/04 14:22:43;;;;;;;;;;;22.60;90.20;;;;;;5055788;28;19908;-74
2022/05/04 14:25:09;;;;;;;;;;;23.20;87.30;;;;;;5056815;28;19913;-75
2022/05/04 14:27:35;;;;;;;;;;;24.00;84.80;;;;;;5051428;28;19917;-74
2022/05/04 14:30:00;;;;;;;;;;;24.30;86.60;;;;;;5052160;28;19916;-75
2022/05/04 14:32:26;;;;;;;;;;;24.90;77.20;;;;;;5052326;28;19909;-75
2022/05/04 14:34:51;;;;;;;;;;;24.90;79.00;;;;;;5052597;28;20409;-74
2022/05/04 14:37:17;;;;;;;;;;;25.00;74.80;;;;;;5052549;28;19909;-75
2022/05/04 14:39:42;;;;;;;;;;;25.80;76.20;;;;;;5052280;28;19908;-74
2022/05/04 14:42:08;;;;;;;;;;;26.00;69.30;;;;;;5052298;28;19947;-74
2022/05/04 14:44:33;;;;;;;;;;;25.80;73.90;;;;;;5052821;28;19935;-75
2022/05/04 14:46:59;;;;;;;;;;;26.80;72.80;;;;;;5062088;28;19919;-74
2022/05/04 14:49:25;;;;;;;;;;;27.50;71.40;;;;;;5051466;28;19921;-74
2022/05/04 14:51:50;;;;;;;;;;;26.40;66.80;;;;;;5051158;28;19954;-74
2022/05/04 14:54:16;;;;;;;;;;;26.30;71.90;;;;;;5051746;28;20381;-74
2022/05/04 14:56:41;;;;;;;;;;;26.30;70.00;;;;;;5053817;28;19908;-74